createdAt,value
2024-02-29T00:02:12.705Z,99088.06
2024-02-29T00:04:39.597Z,99085.50
2024-02-29T00:07:07.086Z,99083.81
2024-02-29T00:09:33.998Z,99086.41
2024-02-29T00:12:00.864Z,99089.88
2024-02-29T00:14:28.335Z,99080.38
2024-02-29T00:16:55.293Z,99080.38
2024-02-29T00:19:22.313Z,99079.53
2024-02-29T00:21:49.277Z,99076.13
2024-02-29T00:24:16.641Z,99082.19
2024-02-29T00:26:43.488Z,99080.47
2024-02-29T00:29:10.403Z,99075.28
2024-02-29T00:31:37.278Z,99078.78
2024-02-29T00:34:05.077Z,99077.09
2024-02-29T00:36:31.971Z,99080.53
2024-02-29T00:39:06.123Z,99067.59
2024-02-29T00:41:38.816Z,99067.59
2024-02-29T00:44:05.879Z,99069.31
2024-02-29T00:46:32.736Z,99063.28
2024-02-29T00:48:59.635Z,99051.19
2024-02-29T00:51:26.589Z,99061.59
2024-02-29T00:53:53.421Z,99055.56
2024-02-29T00:56:20.349Z,99052.13
2024-02-29T00:58:47.272Z,99060.81
2024-02-29T01:01:14.205Z,99061.69
2024-02-29T01:03:41.209Z,99056.53
2024-02-29T01:06:08.593Z,99051.38
2024-02-29T01:08:36.451Z,99043.63
2024-02-29T01:11:06.875Z,99045.38
2024-02-29T01:13:34.011Z,99048.84
2024-02-29T01:16:00.926Z,99044.59
2024-02-29T01:18:27.751Z,99037.72
2024-02-29T01:20:54.585Z,99045.47
2024-02-29T01:23:21.483Z,99030.84
2024-02-29T01:25:48.273Z,99027.34
2024-02-29T01:28:15.239Z,99037.72
2024-02-29T01:30:42.113Z,99030.84
2024-02-29T01:33:09.064Z,99029.16
2024-02-29T01:35:35.927Z,99027.41
2024-02-29T01:38:02.764Z,99036.06
2024-02-29T01:40:29.578Z,99030.88
2024-02-29T01:42:56.410Z,99030.88
2024-02-29T01:45:23.266Z,99027.44
2024-02-29T01:47:50.067Z,99027.44
2024-02-29T01:50:18.139Z,99025.75
2024-02-29T01:52:45.955Z,99021.41
2024-02-29T01:55:13.521Z,99017.09
2024-02-29T01:57:41.455Z,99011.91
2024-02-29T02:00:10.271Z,99010.19
2024-02-29T02:02:39.715Z,98998.91
2024-02-29T02:05:08.301Z,98997.19
2024-02-29T02:07:38.398Z,98998.03
2024-02-29T02:10:09.003Z,98992.84
2024-02-29T02:12:36.828Z,98995.44
2024-02-29T02:15:04.610Z,98979.03
2024-02-29T02:17:33.786Z,98978.19
2024-02-29T02:20:01.971Z,98976.44
2024-02-29T02:22:30.017Z,98984.22
2024-02-29T02:24:57.665Z,98982.53
2024-02-29T02:27:24.819Z,98982.53
2024-02-29T02:29:51.768Z,98981.66
2024-02-29T02:32:18.732Z,98975.59
2024-02-29T02:34:45.639Z,98968.72
2024-02-29T02:37:12.546Z,98967.84
2024-02-29T02:39:39.612Z,98979.03
2024-02-29T02:42:06.487Z,98982.53
2024-02-29T02:44:33.433Z,98973.84
2024-02-29T02:47:00.454Z,98974.72
2024-02-29T02:49:27.261Z,98968.69
2024-02-29T02:51:54.137Z,98966.94
2024-02-29T02:54:21.002Z,98976.44
2024-02-29T02:56:47.808Z,98975.56
2024-02-29T02:59:14.656Z,98965.19
2024-02-29T03:01:41.646Z,98965.19
2024-02-29T03:04:08.586Z,98969.50
2024-02-29T03:06:35.520Z,98963.47
2024-02-29T03:09:02.987Z,98966.91
2024-02-29T03:11:29.857Z,98951.34
2024-02-29T03:13:56.919Z,98947.00
2024-02-29T03:16:24.709Z,98948.75
2024-02-29T03:18:51.934Z,98946.16
2024-02-29T03:21:19.290Z,98949.63
2024-02-29T03:23:46.289Z,98943.56
2024-02-29T03:26:13.114Z,98938.41
2024-02-29T03:28:40.308Z,98941.88
2024-02-29T03:31:14.717Z,98932.38
2024-02-29T03:33:42.592Z,98935.81
2024-02-29T03:36:10.181Z,98930.63
2024-02-29T03:38:38.313Z,98928.94
2024-02-29T03:41:08.131Z,98926.31
2024-02-29T03:43:38.430Z,98931.53
2024-02-29T03:46:05.407Z,98925.47
2024-02-29T03:48:32.495Z,98923.75
2024-02-29T03:50:59.529Z,98926.34
2024-02-29T03:53:26.313Z,98916.81
2024-02-29T03:55:53.154Z,98915.09
2024-02-29T03:58:20.073Z,98913.34
2024-02-29T04:00:47.275Z,98904.72
2024-02-29T04:03:14.153Z,98897.78
2024-02-29T04:05:40.988Z,98899.53
2024-02-29T04:08:12.611Z,98900.38
2024-02-29T04:10:40.190Z,98896.94
2024-02-29T04:13:07.259Z,98892.59
2024-02-29T04:15:34.413Z,98886.56
2024-02-29T04:18:01.597Z,98884.88
2024-02-29T04:20:28.454Z,98903.88
2024-02-29T04:22:55.603Z,98898.69
2024-02-29T04:25:24.286Z,98903.03
2024-02-29T04:27:52.013Z,98902.19
2024-02-29T04:30:19.292Z,98907.41
2024-02-29T04:32:46.567Z,98903.97
2024-02-29T04:35:13.579Z,98902.22
2024-02-29T04:37:40.543Z,98908.28
2024-02-29T04:40:11.301Z,98907.44
2024-02-29T04:42:39.912Z,98893.59
2024-02-29T04:45:08.414Z,98903.13
2024-02-29T04:47:36.112Z,98904.00
2024-02-29T04:50:04.484Z,98916.16
2024-02-29T04:52:31.412Z,98906.66
2024-02-29T04:54:58.366Z,98904.09
2024-02-29T04:57:25.245Z,98904.09
2024-02-29T04:59:52.608Z,98911.03
2024-02-29T05:02:19.386Z,98908.44
2024-02-29T05:04:46.356Z,98903.28
2024-02-29T05:07:13.505Z,98908.47
2024-02-29T05:09:40.373Z,98909.31
2024-02-29T05:12:07.592Z,98923.97
2024-02-29T05:14:34.494Z,98924.88
2024-02-29T05:17:01.367Z,98927.50
2024-02-29T05:19:28.210Z,98935.31
2024-02-29T05:21:56.570Z,98925.91
2024-02-29T05:24:23.667Z,98913.03
2024-02-29T05:26:50.517Z,98909.66
2024-02-29T05:29:17.681Z,98905.44
2024-02-29T05:31:52.823Z,98912.53
2024-02-29T05:34:21.656Z,98906.63
2024-02-29T05:36:49.075Z,98898.97
2024-02-29T05:39:16.291Z,98899.09
2024-02-29T05:41:43.062Z,98901.78
2024-02-29T05:44:10.049Z,98902.69
2024-02-29T05:46:37.489Z,98901.88
2024-02-29T05:49:04.302Z,98904.59
2024-02-29T05:51:31.143Z,98902.94
2024-02-29T05:53:58.073Z,98889.22
2024-02-29T05:56:26.292Z,98876.28
2024-02-29T05:58:53.131Z,98849.59
2024-02-29T06:01:20.392Z,98880.72
2024-02-29T06:03:47.493Z,98864.44
2024-02-29T06:06:16.861Z,98865.31
2024-02-29T06:08:43.938Z,98873.97
2024-02-29T06:11:15.043Z,98869.69
2024-02-29T06:13:42.490Z,98870.63
2024-02-29T06:16:12.052Z,98862.03
2024-02-29T06:18:38.961Z,98869.81
2024-02-29T06:21:06.160Z,98858.63
2024-02-29T06:23:33.041Z,98850.94
2024-02-29T06:25:59.947Z,98848.34
2024-02-29T06:28:26.856Z,98853.59
2024-02-29T06:30:54.866Z,98857.94
2024-02-29T06:33:21.705Z,98847.69
2024-02-29T06:35:48.513Z,98848.56
2024-02-29T06:38:16.249Z,98826.13
2024-02-29T06:40:43.229Z,98831.34
2024-02-29T06:43:10.099Z,98839.13
2024-02-29T06:45:37.058Z,98846.97
2024-02-29T06:48:05.387Z,98856.50
2024-02-29T06:50:32.253Z,98862.59
2024-02-29T06:52:59.101Z,98854.84
2024-02-29T06:55:25.958Z,98858.31
2024-02-29T06:57:52.924Z,98859.19
2024-02-29T07:00:20.209Z,98860.91
2024-02-29T07:02:47.023Z,98862.66
2024-02-29T07:05:13.920Z,98864.44
2024-02-29T07:07:40.722Z,98858.41
2024-02-29T07:10:09.172Z,98847.19
2024-02-29T07:12:36.099Z,98861.91
2024-02-29T07:15:03.638Z,98859.34
2024-02-29T07:17:30.658Z,98868.00
2024-02-29T07:19:57.569Z,98871.47
2024-02-29T07:22:25.020Z,98869.72
2024-02-29T07:24:51.952Z,98871.44
2024-02-29T07:27:18.865Z,98866.25
2024-02-29T07:29:45.650Z,98857.59
2024-02-29T07:32:12.460Z,98863.63
2024-02-29T07:34:39.300Z,98870.53
2024-02-29T07:37:06.309Z,98867.06
2024-02-29T07:39:33.245Z,98868.81
2024-02-29T07:42:00.084Z,98864.53
2024-02-29T07:44:26.966Z,98859.34
2024-02-29T07:46:54.046Z,98869.66
2024-02-29T07:49:20.978Z,98883.47
2024-02-29T07:51:47.909Z,98882.59
2024-02-29T07:54:14.726Z,98879.97
2024-02-29T07:56:42.497Z,98880.78
2024-02-29T07:59:09.345Z,98861.75
2024-02-29T08:01:36.687Z,98870.34
2024-02-29T08:04:03.880Z,98866.00
2024-02-29T08:06:30.825Z,98865.13
2024-02-29T08:08:57.663Z,98861.59
2024-02-29T08:11:27.196Z,98861.53
2024-02-29T08:13:54.692Z,98865.84
2024-02-29T08:16:21.632Z,98862.38
2024-02-29T08:18:48.771Z,98846.84
2024-02-29T08:21:15.900Z,98847.66
2024-02-29T08:23:42.671Z,98844.19
2024-02-29T08:26:10.384Z,98847.59
2024-02-29T08:28:38.445Z,98856.22
2024-02-29T08:31:07.129Z,98851.88
2024-02-29T08:33:33.996Z,98854.44
2024-02-29T08:36:01.131Z,98849.22
2024-02-29T08:38:28.395Z,98856.97
2024-02-29T08:40:55.311Z,98874.13
2024-02-29T08:43:22.846Z,98882.72
2024-02-29T08:45:51.263Z,98885.31
2024-02-29T08:48:18.169Z,98893.06
2024-02-29T08:50:44.980Z,98887.91
2024-02-29T08:53:12.153Z,98878.44
2024-02-29T08:55:39.016Z,98860.31
2024-02-29T08:58:06.393Z,98862.03
2024-02-29T09:00:33.314Z,98845.59
2024-02-29T09:03:00.208Z,98846.34
2024-02-29T09:05:27.051Z,98848.91
2024-02-29T09:07:54.368Z,98844.59
2024-02-29T09:10:23.151Z,98844.59
2024-02-29T09:12:50.105Z,98852.25
2024-02-29T09:15:17.149Z,98847.94
2024-02-29T09:17:44.279Z,98847.06
2024-02-29T09:20:12.106Z,98837.47
2024-02-29T09:22:39.018Z,98837.47
2024-02-29T09:25:08.049Z,98840.91
2024-02-29T09:27:35.073Z,98840.94
2024-02-29T09:30:01.986Z,98852.97
2024-02-29T09:32:28.872Z,98846.88
2024-02-29T09:34:55.693Z,98849.44
2024-02-29T09:37:23.034Z,98858.03
2024-02-29T09:39:50.007Z,98847.63
2024-02-29T09:42:17.242Z,98852.81
2024-02-29T09:44:44.750Z,98864.06
2024-02-29T09:47:13.856Z,98866.66
2024-02-29T09:49:41.970Z,98864.97
2024-02-29T09:52:09.607Z,98862.34
2024-02-29T09:54:39.650Z,98870.06
2024-02-29T09:57:12.547Z,98863.09
2024-02-29T09:59:42.877Z,98868.16
2024-02-29T10:02:15.613Z,98859.63
2024-02-29T10:04:42.838Z,98860.53
2024-02-29T10:07:11.026Z,98858.75
2024-02-29T10:09:38.329Z,98852.63
2024-02-29T10:12:05.629Z,98852.50
2024-02-29T10:14:32.538Z,98860.19
2024-02-29T10:16:59.868Z,98872.22
2024-02-29T10:19:26.822Z,98871.38
2024-02-29T10:21:53.994Z,98869.56
2024-02-29T10:24:23.060Z,98867.78
2024-02-29T10:26:51.037Z,98865.19
2024-02-29T10:29:23.191Z,98857.41
2024-02-29T10:31:50.738Z,98848.66
2024-02-29T10:34:20.466Z,98840.78
2024-02-29T10:36:47.776Z,98844.16
2024-02-29T10:39:14.758Z,98847.53
2024-02-29T10:41:49.136Z,98850.16
2024-02-29T10:44:20.384Z,98851.19
2024-02-29T10:46:50.693Z,98851.34
2024-02-29T10:49:30.612Z,98855.72
2024-02-29T10:52:10.895Z,98855.78
2024-02-29T10:54:46.181Z,98864.41
2024-02-29T10:57:23.228Z,98859.34
2024-02-29T11:00:06.334Z,98845.66
2024-02-29T11:02:33.780Z,98842.19
2024-02-29T11:05:01.915Z,98830.13
2024-02-29T11:07:30.048Z,98827.50
2024-02-29T11:09:57.635Z,98831.66
2024-02-29T11:12:28.303Z,98843.69
2024-02-29T11:14:59.080Z,98832.53
2024-02-29T11:17:34.626Z,98838.72
2024-02-29T11:20:08.505Z,98828.38
2024-02-29T11:22:36.335Z,98829.97
2024-02-29T11:25:12.234Z,98827.41
2024-02-29T11:27:51.964Z,98820.41
2024-02-29T11:30:22.626Z,98821.09
2024-02-29T11:32:50.042Z,98827.81
2024-02-29T11:35:17.245Z,98823.44
2024-02-29T11:37:45.758Z,98823.38
2024-02-29T11:40:20.186Z,98816.53
2024-02-29T11:42:47.263Z,98822.59
2024-02-29T11:45:23.421Z,98820.06
2024-02-29T11:47:50.725Z,98820.97
2024-02-29T11:50:18.582Z,98827.19
2024-02-29T11:52:46.055Z,98832.41
2024-02-29T11:55:13.572Z,98833.22
2024-02-29T11:57:42.507Z,98834.88
2024-02-29T12:00:09.951Z,98828.81
2024-02-29T12:02:38.488Z,98822.75
2024-02-29T12:05:06.658Z,98828.84
2024-02-29T12:07:33.927Z,98823.63
2024-02-29T12:10:02.644Z,98828.84
2024-02-29T12:12:30.408Z,98822.75
2024-02-29T12:14:58.494Z,98830.44
2024-02-29T12:17:28.381Z,98829.44
2024-02-29T12:19:56.415Z,98825.03
2024-02-29T12:22:23.412Z,98818.03
2024-02-29T12:24:50.389Z,98816.25
2024-02-29T12:27:17.330Z,98809.22
2024-02-29T12:29:45.068Z,98804.91
2024-02-29T12:32:12.695Z,98796.31
2024-02-29T12:34:41.616Z,98800.72
2024-02-29T12:37:13.097Z,98785.19
2024-02-29T12:39:40.935Z,98780.91
2024-02-29T12:42:08.299Z,98799.94
2024-02-29T12:44:35.175Z,98786.19
2024-02-29T12:47:01.999Z,98786.22
2024-02-29T12:49:29.451Z,98780.25
2024-02-29T12:51:56.604Z,98788.09
2024-02-29T12:54:24.155Z,98782.16
2024-02-29T12:56:51.081Z,98788.22
2024-02-29T12:59:18.983Z,98783.94
2024-02-29T13:01:46.118Z,98771.91
2024-02-29T13:04:13.319Z,98776.25
2024-02-29T13:06:40.419Z,98757.25
2024-02-29T13:09:07.576Z,98768.50
2024-02-29T13:11:35.543Z,98772.81
2024-02-29T13:14:02.539Z,98777.88
2024-02-29T13:16:29.680Z,98775.22
2024-02-29T13:18:56.600Z,98763.97
2024-02-29T13:21:23.859Z,98754.44
2024-02-29T13:23:50.707Z,98753.53
2024-02-29T13:26:17.519Z,98760.44
2024-02-29T13:28:45.029Z,98758.72
2024-02-29T13:31:11.909Z,98758.72
2024-02-29T13:33:38.807Z,98753.63
2024-02-29T13:36:06.255Z,98750.22
2024-02-29T13:38:33.268Z,98744.31
2024-02-29T13:41:00.126Z,98745.13
2024-02-29T13:43:27.094Z,98742.50
2024-02-29T13:45:54.083Z,98738.22
2024-02-29T13:48:20.910Z,98737.25
2024-02-29T13:50:47.703Z,98738.03
2024-02-29T13:53:14.662Z,98728.44
2024-02-29T13:55:45.711Z,98739.63
2024-02-29T13:58:14.613Z,98730.97
2024-02-29T14:00:41.943Z,98726.59
2024-02-29T14:03:08.797Z,98723.94
2024-02-29T14:05:35.695Z,98713.53
2024-02-29T14:08:02.734Z,98710.06
2024-02-29T14:10:29.622Z,98711.69
2024-02-29T14:12:56.811Z,98711.69
2024-02-29T14:15:23.730Z,98705.66
2024-02-29T14:17:51.884Z,98708.28
2024-02-29T14:20:19.108Z,98716.88
2024-02-29T14:22:45.995Z,98709.97
2024-02-29T14:25:12.904Z,98704.78
2024-02-29T14:27:39.912Z,98703.06
2024-02-29T14:30:10.224Z,98704.78
2024-02-29T14:32:38.549Z,98706.56
2024-02-29T14:35:06.018Z,98704.88
2024-02-29T14:37:34.044Z,98705.72
2024-02-29T14:40:01.525Z,98698.81
2024-02-29T14:42:28.794Z,98703.09
2024-02-29T14:44:58.008Z,98701.28
2024-02-29T14:47:27.029Z,98705.53
2024-02-29T14:49:55.024Z,98700.31
2024-02-29T14:52:21.978Z,98699.47
2024-02-29T14:54:49.600Z,98700.38
2024-02-29T14:57:17.416Z,98702.22
2024-02-29T14:59:44.655Z,98692.72
2024-02-29T15:02:12.595Z,98691.00
2024-02-29T15:04:39.459Z,98686.66
2024-02-29T15:07:06.834Z,98679.66
2024-02-29T15:09:33.909Z,98677.09
2024-02-29T15:12:00.950Z,98672.78
2024-02-29T15:14:27.852Z,98671.09
2024-02-29T15:16:55.289Z,98671.09
2024-02-29T15:19:25.504Z,98665.03
2024-02-29T15:21:52.773Z,98668.47
2024-02-29T15:24:21.720Z,98660.75
2024-02-29T15:26:49.264Z,98665.97
2024-02-29T15:29:16.214Z,98655.63
2024-02-29T15:31:45.467Z,98652.16
2024-02-29T15:34:14.791Z,98646.91
2024-02-29T15:36:42.046Z,98649.50
2024-02-29T15:39:08.890Z,98662.44
2024-02-29T15:41:36.246Z,98661.63
2024-02-29T15:44:03.129Z,98664.34
2024-02-29T15:46:30.277Z,98667.00
2024-02-29T15:48:57.306Z,98653.25
2024-02-29T15:51:25.272Z,98657.63
2024-02-29T15:53:52.111Z,98659.47
2024-02-29T15:56:19.514Z,98656.88
2024-02-29T15:58:46.392Z,98644.00
2024-02-29T16:01:13.427Z,98644.09
2024-02-29T16:03:40.507Z,98653.56
2024-02-29T16:06:07.368Z,98647.56
2024-02-29T16:08:34.229Z,98644.13
2024-02-29T16:11:01.168Z,98632.94
2024-02-29T16:13:28.300Z,98634.75
2024-02-29T16:15:56.383Z,98631.31
2024-02-29T16:18:23.692Z,98632.16
2024-02-29T16:20:52.616Z,98624.41
2024-02-29T16:23:20.239Z,98617.50
2024-02-29T16:25:47.261Z,98617.56
2024-02-29T16:28:14.379Z,98617.56
2024-02-29T16:30:41.273Z,98615.00
2024-02-29T16:33:08.182Z,98616.75
2024-02-29T16:35:35.090Z,98615.94
2024-02-29T16:38:03.488Z,98617.75
2024-02-29T16:40:31.420Z,98619.66
2024-02-29T16:42:58.423Z,98622.28
2024-02-29T16:45:25.249Z,98635.25
2024-02-29T16:47:52.504Z,98624.06
2024-02-29T16:50:19.575Z,98640.56
2024-02-29T16:52:46.420Z,98632.81
2024-02-29T16:55:13.717Z,98627.63
2024-02-29T16:57:40.706Z,98626.81
2024-02-29T17:00:10.137Z,98617.38
2024-02-29T17:02:37.032Z,98622.59
2024-02-29T17:05:04.158Z,98631.34
2024-02-29T17:07:31.876Z,98628.81
2024-02-29T17:10:00.615Z,98629.84
2024-02-29T17:12:28.261Z,98627.38
2024-02-29T17:14:55.470Z,98631.75
2024-02-29T17:17:22.443Z,98626.63
2024-02-29T17:19:49.384Z,98622.41
2024-02-29T17:22:16.358Z,98624.13
2024-02-29T17:24:45.075Z,98617.22
2024-02-29T17:27:11.971Z,98616.44
2024-02-29T17:29:38.840Z,98623.44
2024-02-29T17:32:05.995Z,98611.47
2024-02-29T17:34:32.880Z,98614.13
2024-02-29T17:36:59.736Z,98615.91
2024-02-29T17:39:26.635Z,98625.47
2024-02-29T17:41:53.479Z,98629.88
2024-02-29T17:44:23.383Z,98631.69
2024-02-29T17:46:50.231Z,98630.09
2024-02-29T17:49:17.549Z,98623.25
2024-02-29T17:51:47.817Z,98625.94
2024-02-29T17:54:14.793Z,98617.41
2024-02-29T17:56:42.713Z,98617.47
2024-02-29T17:59:11.150Z,98627.03
2024-02-29T18:01:38.488Z,98619.34
2024-02-29T18:04:06.060Z,98618.50
2024-02-29T18:06:33.102Z,98606.56
2024-02-29T18:08:59.900Z,98606.63
2024-02-29T18:11:26.763Z,98609.25
2024-02-29T18:13:53.601Z,98602.44
2024-02-29T18:16:20.446Z,98608.50
2024-02-29T18:18:48.810Z,98606.78
2024-02-29T18:21:15.696Z,98608.53
2024-02-29T18:23:42.591Z,98605.97
2024-02-29T18:26:09.448Z,98606.84
2024-02-29T18:28:36.250Z,98598.31
2024-02-29T18:31:04.387Z,98602.66
2024-02-29T18:33:31.233Z,98597.53
2024-02-29T18:35:58.366Z,98602.75
2024-02-29T18:38:27.288Z,98607.09
2024-02-29T18:40:54.096Z,98601.97
2024-02-29T18:43:21.079Z,98602.00
2024-02-29T18:45:57.060Z,98603.75
2024-02-29T18:48:29.710Z,98596.06
2024-02-29T18:50:56.517Z,98585.75
2024-02-29T18:53:23.333Z,98584.03
2024-02-29T18:55:51.167Z,98594.41
2024-02-29T18:58:18.348Z,98588.44
2024-02-29T19:00:45.414Z,98602.19
2024-02-29T19:03:12.262Z,98596.16
2024-02-29T19:05:39.047Z,98591.88
2024-02-29T19:08:06.405Z,98585.84
2024-02-29T19:10:34.304Z,98579.84
2024-02-29T19:13:01.191Z,98579.00
2024-02-29T19:15:27.974Z,98579.03
2024-02-29T19:17:55.024Z,98574.81
2024-02-29T19:20:21.880Z,98570.56
2024-02-29T19:22:48.698Z,98568.91
2024-02-29T19:25:15.583Z,98560.38
2024-02-29T19:27:42.525Z,98563.94
2024-02-29T19:30:12.069Z,98563.94
2024-02-29T19:32:39.009Z,98564.91
2024-02-29T19:35:06.710Z,98565.84
2024-02-29T19:37:33.708Z,98559.91
2024-02-29T19:40:00.608Z,98564.28
2024-02-29T19:42:27.521Z,98562.63
2024-02-29T19:44:59.222Z,98560.09
2024-02-29T19:47:26.555Z,98554.97
2024-02-29T19:49:53.408Z,98553.31
2024-02-29T19:52:20.367Z,98553.41
2024-02-29T19:54:48.367Z,98554.31
2024-02-29T19:57:15.597Z,98550.06
2024-02-29T19:59:42.544Z,98543.22
2024-02-29T20:02:09.923Z,98543.28
2024-02-29T20:04:37.169Z,98537.31
2024-02-29T20:07:04.807Z,98536.50
2024-02-29T20:09:31.948Z,98530.56
2024-02-29T20:11:58.856Z,98526.34
2024-02-29T20:14:25.714Z,98529.00
2024-02-29T20:16:52.654Z,98529.94
2024-02-29T20:19:19.573Z,98530.88
2024-02-29T20:21:48.192Z,98530.94
2024-02-29T20:24:15.668Z,98533.50
2024-02-29T20:26:44.818Z,98525.81
2024-02-29T20:29:11.804Z,98525.81
2024-02-29T20:31:38.639Z,98519.00
2024-02-29T20:34:05.453Z,98514.75
2024-02-29T20:36:32.322Z,98520.81
2024-02-29T20:38:59.463Z,98515.66
2024-02-29T20:41:26.291Z,98513.94
2024-02-29T20:43:53.165Z,98510.53
2024-02-29T20:46:20.514Z,98516.59
2024-02-29T20:48:48.263Z,98509.75
2024-02-29T20:51:15.269Z,98508.06
2024-02-29T20:53:42.236Z,98503.78
2024-02-29T20:56:09.161Z,98501.22
2024-02-29T20:58:37.105Z,98500.44
2024-02-29T21:01:04.421Z,98507.31
2024-02-29T21:03:31.434Z,98505.63
2024-02-29T21:06:00.309Z,98503.06
2024-02-29T21:08:33.315Z,98497.94
2024-02-29T21:11:01.927Z,98486.81
2024-02-29T21:13:34.603Z,98507.44
2024-02-29T21:16:01.688Z,98492.00
2024-02-29T21:18:28.726Z,98495.50
2024-02-29T21:20:55.806Z,98493.81
2024-02-29T21:23:23.292Z,98498.97
2024-02-29T21:25:50.126Z,98494.69
2024-02-29T21:28:17.055Z,98495.56
2024-02-29T21:30:43.921Z,98498.16
2024-02-29T21:33:11.224Z,98491.34
2024-02-29T21:35:38.518Z,98489.66
2024-02-29T21:38:05.480Z,98483.69
2024-02-29T21:40:32.461Z,98488.91
2024-02-29T21:43:00.715Z,98482.97
2024-02-29T21:45:27.623Z,98488.13
2024-02-29T21:47:54.460Z,98486.47
2024-02-29T21:50:22.976Z,98486.47
2024-02-29T21:52:50.081Z,98477.94
2024-02-29T21:55:17.101Z,98477.97
2024-02-29T21:57:44.418Z,98481.41
2024-02-29T22:00:13.991Z,98475.47
2024-02-29T22:02:43.976Z,98475.47
2024-02-29T22:05:11.767Z,98473.78
2024-02-29T22:07:38.861Z,98477.25
2024-02-29T22:10:06.069Z,98475.56
2024-02-29T22:12:32.975Z,98468.72
2024-02-29T22:14:59.870Z,98468.75
2024-02-29T22:17:26.688Z,98469.63
2024-02-29T22:19:53.566Z,98471.38
2024-02-29T22:22:20.422Z,98461.97
2024-02-29T22:24:47.323Z,98463.72
2024-02-29T22:27:14.272Z,98459.47
2024-02-29T22:29:41.145Z,98456.06
2024-02-29T22:32:08.199Z,98461.22
2024-02-29T22:34:35.130Z,98453.53
2024-02-29T22:37:04.268Z,98441.56
2024-02-29T22:39:31.185Z,98439.03
2024-02-29T22:42:01.918Z,98433.06
2024-02-29T22:44:30.072Z,98431.38
2024-02-29T22:46:57.111Z,98434.88
2024-02-29T22:49:24.553Z,98429.78
2024-02-29T22:51:51.911Z,98435.81
2024-02-29T22:54:19.167Z,98436.75
2024-02-29T22:56:46.079Z,98443.66
2024-02-29T22:59:12.946Z,98432.59
2024-02-29T23:01:46.365Z,98428.34
2024-02-29T23:04:13.819Z,98424.94
2024-02-29T23:06:41.298Z,98426.69
2024-02-29T23:09:08.307Z,98425.84
2024-02-29T23:11:35.248Z,98420.75
2024-02-29T23:14:02.233Z,98416.53
2024-02-29T23:16:29.100Z,98414.84
2024-02-29T23:18:55.949Z,98414.00
2024-02-29T23:21:22.954Z,98403.78
2024-02-29T23:23:49.773Z,98405.53
2024-02-29T23:26:17.556Z,98406.41
2024-02-29T23:28:44.375Z,98401.31
2024-02-29T23:31:11.266Z,98399.63
2024-02-29T23:33:38.410Z,98397.94
2024-02-29T23:36:07.751Z,98396.25
2024-02-29T23:38:34.684Z,98394.56
2024-02-29T23:41:01.737Z,98395.44
2024-02-29T23:43:28.755Z,98390.31
2024-02-29T23:45:56.350Z,98391.19
2024-02-29T23:48:23.236Z,98399.75
2024-02-29T23:50:50.216Z,98389.47
2024-02-29T23:53:17.350Z,98393.75
2024-02-29T23:55:44.658Z,98387.78
2024-02-29T23:58:11.483Z,98380.13
